Thatcher, Colorado
Current Conditions -  °F | °C
As of 9:54 PM on Wednesday 22 Oct 2014 (Local Time) from KTAD Reporting Station
Light Rain Light Rain  
Wind Chill: 58°   Ceiling: 9000
Heat Index: 58°   Visibility: 10mi
Dew Point: 42°   Wind: 5mph
Humidity: 56%   Direction: 200°SSW
Pressure: 30.15"   Gusts: NA
Location:  37.5307°N, 104.063°W
Report Text: KTAD 230354Z AUTO 20004KT 10SM -RA BKN090 OVC110 14/06 A3015 RMK AO2 RAB17 SLP151 P0000 T01440056
Loading
Personal Weather Stations






























Interactive Weather Map
Tropical Storm Tracking
New forecast layout! Learn more

10-Day Weather Forecast

Advertisements
Track Severe Weather on mobile